sensor_id;sensor_type;location;lat;lon;timestamp;temperature;humidity
4757;DHT22;2392;52.578;13.426;2022-12-13T00:01:47;-0.10;99.90
4757;DHT22;2392;52.578;13.426;2022-12-13T00:04:16;-0.10;99.90
4757;DHT22;2392;52.578;13.426;2022-12-13T00:06:43;-0.10;99.90
4757;DHT22;2392;52.578;13.426;2022-12-13T00:09:12;-0.10;99.90
4757;DHT22;2392;52.578;13.426;2022-12-13T00:11:39;0.00;99.90
4757;DHT22;2392;52.578;13.426;2022-12-13T00:14:06;0.00;99.90
4757;DHT22;2392;52.578;13.426;2022-12-13T00:16:35;0.00;99.90
4757;DHT22;2392;52.578;13.426;2022-12-13T00:19:02;0.00;99.90
4757;DHT22;2392;52.578;13.426;2022-12-13T00:21:31;0.00;99.90
4757;DHT22;2392;52.578;13.426;2022-12-13T00:24:00;0.00;99.90
4757;DHT22;2392;52.578;13.426;2022-12-13T00:26:28;0.00;99.90
4757;DHT22;2392;52.578;13.426;2022-12-13T00:28:58;-0.10;99.90
4757;DHT22;2392;52.578;13.426;2022-12-13T00:31:25;-0.10;99.90
4757;DHT22;2392;52.578;13.426;2022-12-13T00:33:53;-0.10;99.90
4757;DHT22;2392;52.578;13.426;2022-12-13T00:36:20;-0.10;99.90
4757;DHT22;2392;52.578;13.426;2022-12-13T00:38:47;0.00;99.90
4757;DHT22;2392;52.578;13.426;2022-12-13T00:41:26;0.00;99.90
4757;DHT22;2392;52.578;13.426;2022-12-13T00:43:53;0.00;99.90
4757;DHT22;2392;52.578;13.426;2022-12-13T00:46:21;-0.10;99.90
4757;DHT22;2392;52.578;13.426;2022-12-13T00:48:49;-0.10;99.90
4757;DHT22;2392;52.578;13.426;2022-12-13T00:51:19;-0.10;99.90
4757;DHT22;2392;52.578;13.426;2022-12-13T00:53:47;0.00;99.90
4757;DHT22;2392;52.578;13.426;2022-12-13T00:56:16;0.00;99.90
4757;DHT22;2392;52.578;13.426;2022-12-13T00:58:44;0.00;99.90
4757;DHT22;2392;52.578;13.426;2022-12-13T01:01:12;0.00;99.90
4757;DHT22;2392;52.578;13.426;2022-12-13T01:03:41;0.00;99.90
4757;DHT22;2392;52.578;13.426;2022-12-13T01:06:09;0.00;99.90
4757;DHT22;2392;52.578;13.426;2022-12-13T01:08:38;-0.10;99.90
4757;DHT22;2392;52.578;13.426;2022-12-13T01:11:06;0.00;99.90
4757;DHT22;2392;52.578;13.426;2022-12-13T01:13:34;0.00;99.90
4757;DHT22;2392;52.578;13.426;2022-12-13T01:16:02;0.00;99.90
4757;DHT22;2392;52.578;13.426;2022-12-13T01:18:29;-0.10;99.90
4757;DHT22;2392;52.578;13.426;2022-12-13T01:20:58;-0.10;99.90
4757;DHT22;2392;52.578;13.426;2022-12-13T01:23:26;-0.10;99.90
4757;DHT22;2392;52.578;13.426;2022-12-13T01:25:55;-0.10;99.90
4757;DHT22;2392;52.578;13.426;2022-12-13T01:28:23;-0.10;99.90
4757;DHT22;2392;52.578;13.426;2022-12-13T01:30:54;-0.10;99.90
4757;DHT22;2392;52.578;13.426;2022-12-13T01:33:22;-0.10;99.90
4757;DHT22;2392;52.578;13.426;2022-12-13T01:35:49;-0.10;99.90
4757;DHT22;2392;52.578;13.426;2022-12-13T01:38:16;-0.10;99.90
4757;DHT22;2392;52.578;13.426;2022-12-13T01:40:45;-0.10;99.90
4757;DHT22;2392;52.578;13.426;2022-12-13T01:43:15;-0.10;99.90
4757;DHT22;2392;52.578;13.426;2022-12-13T01:45:43;-0.10;99.90
4757;DHT22;2392;52.578;13.426;2022-12-13T01:48:13;-0.10;99.90
4757;DHT22;2392;52.578;13.426;2022-12-13T01:50:45;-0.10;99.90
4757;DHT22;2392;52.578;13.426;2022-12-13T01:53:18;-0.10;99.90
4757;DHT22;2392;52.578;13.426;2022-12-13T01:55:51;-0.10;99.90
4757;DHT22;2392;52.578;13.426;2022-12-13T01:58:22;-0.10;99.90
4757;DHT22;2392;52.578;13.426;2022-12-13T02:00:49;-0.10;99.90
4757;DHT22;2392;52.578;13.426;2022-12-13T02:03:21;-0.10;99.90
4757;DHT22;2392;52.578;13.426;2022-12-13T02:05:52;-0.10;99.90
4757;DHT22;2392;52.578;13.426;2022-12-13T02:08:22;-0.10;99.90
4757;DHT22;2392;52.578;13.426;2022-12-13T02:10:50;0.00;99.90
4757;DHT22;2392;52.578;13.426;2022-12-13T02:13:17;0.00;99.90
4757;DHT22;2392;52.578;13.426;2022-12-13T02:15:57;0.00;99.90
4757;DHT22;2392;52.578;13.426;2022-12-13T02:18:39;0.00;99.90
4757;DHT22;2392;52.578;13.426;2022-12-13T02:21:20;0.00;99.90
4757;DHT22;2392;52.578;13.426;2022-12-13T02:24:24;0.00;99.90
4757;DHT22;2392;52.578;13.426;2022-12-13T02:27:06;-0.10;99.90
4757;DHT22;2392;52.578;13.426;2022-12-13T02:32:34;-0.10;99.90
4757;DHT22;2392;52.578;13.426;2022-12-13T02:35:06;-0.10;99.90
4757;DHT22;2392;52.578;13.426;2022-12-13T02:37:43;-0.10;99.90
4757;DHT22;2392;52.578;13.426;2022-12-13T02:40:17;0.00;99.90
4757;DHT22;2392;52.578;13.426;2022-12-13T02:42:49;-0.10;99.90
4757;DHT22;2392;52.578;13.426;2022-12-13T02:45:22;-0.10;99.90
4757;DHT22;2392;52.578;13.426;2022-12-13T02:47:55;0.00;99.90
4757;DHT22;2392;52.578;13.426;2022-12-13T02:50:24;0.00;99.90
4757;DHT22;2392;52.578;13.426;2022-12-13T02:52:52;0.00;99.90
4757;DHT22;2392;52.578;13.426;2022-12-13T02:55:20;0.00;99.90
4757;DHT22;2392;52.578;13.426;2022-12-13T02:57:48;0.00;99.90
4757;DHT22;2392;52.578;13.426;2022-12-13T03:00:17;-0.10;99.90
4757;DHT22;2392;52.578;13.426;2022-12-13T03:03:04;0.00;99.90
4757;DHT22;2392;52.578;13.426;2022-12-13T03:05:41;0.00;99.90
4757;DHT22;2392;52.578;13.426;2022-12-13T03:08:38;0.00;99.90
4757;DHT22;2392;52.578;13.426;2022-12-13T03:11:11;0.00;99.90
4757;DHT22;2392;52.578;13.426;2022-12-13T03:13:47;0.00;99.90
4757;DHT22;2392;52.578;13.426;2022-12-13T03:16:23;0.00;99.90
4757;DHT22;2392;52.578;13.426;2022-12-13T03:18:57;0.00;99.90
4757;DHT22;2392;52.578;13.426;2022-12-13T03:21:25;0.10;99.90
4757;DHT22;2392;52.578;13.426;2022-12-13T03:23:52;0.10;99.90
4757;DHT22;2392;52.578;13.426;2022-12-13T03:26:21;0.00;99.90
4757;DHT22;2392;52.578;13.426;2022-12-13T03:28:49;0.00;99.90
4757;DHT22;2392;52.578;13.426;2022-12-13T03:31:17;0.10;99.90
4757;DHT22;2392;52.578;13.426;2022-12-13T03:33:47;0.00;99.90
4757;DHT22;2392;52.578;13.426;2022-12-13T03:36:15;0.00;99.90
4757;DHT22;2392;52.578;13.426;2022-12-13T03:38:46;0.00;99.90
4757;DHT22;2392;52.578;13.426;2022-12-13T03:41:16;-0.10;99.90
4757;DHT22;2392;52.578;13.426;2022-12-13T03:43:43;0.00;99.90
4757;DHT22;2392;52.578;13.426;2022-12-13T03:46:11;-0.10;99.90
4757;DHT22;2392;52.578;13.426;2022-12-13T03:48:38;-0.20;99.90
4757;DHT22;2392;52.578;13.426;2022-12-13T03:51:05;-0.20;99.90
4757;DHT22;2392;52.578;13.426;2022-12-13T03:53:33;-0.20;99.90
4757;DHT22;2392;52.578;13.426;2022-12-13T03:56:01;-0.20;99.90
4757;DHT22;2392;52.578;13.426;2022-12-13T03:58:29;-0.20;99.90
4757;DHT22;2392;52.578;13.426;2022-12-13T04:00:56;-0.20;99.90
4757;DHT22;2392;52.578;13.426;2022-12-13T04:03:23;-0.10;99.90
4757;DHT22;2392;52.578;13.426;2022-12-13T04:05:50;-0.10;99.90
4757;DHT22;2392;52.578;13.426;2022-12-13T04:08:17;-0.10;99.90
4757;DHT22;2392;52.578;13.426;2022-12-13T04:10:45;-0.10;99.90
4757;DHT22;2392;52.578;13.426;2022-12-13T04:13:12;0.00;99.90
4757;DHT22;2392;52.578;13.426;2022-12-13T04:15:56;-0.10;99.90
4757;DHT22;2392;52.578;13.426;2022-12-13T04:18:23;0.00;99.90
4757;DHT22;2392;52.578;13.426;2022-12-13T04:20:51;0.00;99.90
4757;DHT22;2392;52.578;13.426;2022-12-13T04:23:18;-0.10;99.90
4757;DHT22;2392;52.578;13.426;2022-12-13T04:25:46;-0.10;99.90
4757;DHT22;2392;52.578;13.426;2022-12-13T04:28:13;-0.10;99.90
4757;DHT22;2392;52.578;13.426;2022-12-13T04:30:40;-0.10;99.90
4757;DHT22;2392;52.578;13.426;2022-12-13T04:33:07;-0.10;99.90
4757;DHT22;2392;52.578;13.426;2022-12-13T04:35:34;-0.10;99.90
4757;DHT22;2392;52.578;13.426;2022-12-13T04:38:01;-0.10;99.90
4757;DHT22;2392;52.578;13.426;2022-12-13T04:40:28;-0.10;99.90
4757;DHT22;2392;52.578;13.426;2022-12-13T04:42:56;-0.10;99.90
4757;DHT22;2392;52.578;13.426;2022-12-13T04:45:23;-0.10;99.90
4757;DHT22;2392;52.578;13.426;2022-12-13T04:47:50;-0.10;99.90
4757;DHT22;2392;52.578;13.426;2022-12-13T04:50:17;-0.10;99.90
4757;DHT22;2392;52.578;13.426;2022-12-13T04:52:44;0.00;99.90
4757;DHT22;2392;52.578;13.426;2022-12-13T04:55:11;0.00;99.90
4757;DHT22;2392;52.578;13.426;2022-12-13T04:57:39;0.00;99.90
4757;DHT22;2392;52.578;13.426;2022-12-13T05:00:09;0.00;99.90
4757;DHT22;2392;52.578;13.426;2022-12-13T05:02:38;0.00;99.90
4757;DHT22;2392;52.578;13.426;2022-12-13T05:05:07;0.00;99.90
4757;DHT22;2392;52.578;13.426;2022-12-13T05:07:35;0.00;99.90
4757;DHT22;2392;52.578;13.426;2022-12-13T05:10:03;-0.10;99.90
4757;DHT22;2392;52.578;13.426;2022-12-13T05:12:30;-0.10;99.90
4757;DHT22;2392;52.578;13.426;2022-12-13T05:14:57;-0.10;99.90
4757;DHT22;2392;52.578;13.426;2022-12-13T05:17:25;0.00;99.90
4757;DHT22;2392;52.578;13.426;2022-12-13T05:19:52;-0.10;99.90
4757;DHT22;2392;52.578;13.426;2022-12-13T05:22:20;-0.10;99.90
4757;DHT22;2392;52.578;13.426;2022-12-13T05:24:47;-0.10;99.90
4757;DHT22;2392;52.578;13.426;2022-12-13T05:27:14;-0.10;99.90
4757;DHT22;2392;52.578;13.426;2022-12-13T05:29:42;-0.10;99.90
4757;DHT22;2392;52.578;13.426;2022-12-13T05:32:09;-0.20;99.90
4757;DHT22;2392;52.578;13.426;2022-12-13T05:34:37;-0.10;99.90
4757;DHT22;2392;52.578;13.426;2022-12-13T05:37:04;-0.20;99.90
4757;DHT22;2392;52.578;13.426;2022-12-13T05:39:31;-0.20;99.90
4757;DHT22;2392;52.578;13.426;2022-12-13T05:41:58;-0.20;99.90
4757;DHT22;2392;52.578;13.426;2022-12-13T05:44:25;-0.20;99.90
4757;DHT22;2392;52.578;13.426;2022-12-13T05:46:52;-0.20;99.90
4757;DHT22;2392;52.578;13.426;2022-12-13T05:49:19;-0.20;99.90
4757;DHT22;2392;52.578;13.426;2022-12-13T05:51:48;-0.20;99.90
4757;DHT22;2392;52.578;13.426;2022-12-13T05:54:14;-0.20;99.90
4757;DHT22;2392;52.578;13.426;2022-12-13T05:56:41;-0.20;99.90
4757;DHT22;2392;52.578;13.426;2022-12-13T05:59:08;-0.20;99.90
4757;DHT22;2392;52.578;13.426;2022-12-13T06:01:35;-0.20;99.90
4757;DHT22;2392;52.578;13.426;2022-12-13T06:04:02;-0.20;99.90
4757;DHT22;2392;52.578;13.426;2022-12-13T06:06:29;-0.20;99.90
4757;DHT22;2392;52.578;13.426;2022-12-13T06:08:59;-0.20;99.90
4757;DHT22;2392;52.578;13.426;2022-12-13T06:11:26;-0.20;99.90
4757;DHT22;2392;52.578;13.426;2022-12-13T06:13:53;-0.10;99.90
4757;DHT22;2392;52.578;13.426;2022-12-13T06:16:20;-0.10;99.90
4757;DHT22;2392;52.578;13.426;2022-12-13T06:18:47;-0.10;99.90
4757;DHT22;2392;52.578;13.426;2022-12-13T06:21:14;-0.10;99.90
4757;DHT22;2392;52.578;13.426;2022-12-13T06:23:41;-0.10;99.90
4757;DHT22;2392;52.578;13.426;2022-12-13T06:26:09;-0.10;99.90
4757;DHT22;2392;52.578;13.426;2022-12-13T06:28:36;-0.10;99.90
4757;DHT22;2392;52.578;13.426;2022-12-13T06:31:04;-0.10;99.90
4757;DHT22;2392;52.578;13.426;2022-12-13T06:33:31;-0.10;99.90
4757;DHT22;2392;52.578;13.426;2022-12-13T06:36:01;-0.20;99.90
4757;DHT22;2392;52.578;13.426;2022-12-13T06:38:28;-0.10;99.90
4757;DHT22;2392;52.578;13.426;2022-12-13T06:41:05;-0.10;99.90
4757;DHT22;2392;52.578;13.426;2022-12-13T06:43:33;-0.10;99.90
4757;DHT22;2392;52.578;13.426;2022-12-13T06:46:02;-0.10;99.90
4757;DHT22;2392;52.578;13.426;2022-12-13T06:48:30;-0.10;99.90
4757;DHT22;2392;52.578;13.426;2022-12-13T06:50:59;-0.10;99.90
4757;DHT22;2392;52.578;13.426;2022-12-13T06:53:27;0.00;99.90
4757;DHT22;2392;52.578;13.426;2022-12-13T06:55:54;0.00;99.90
4757;DHT22;2392;52.578;13.426;2022-12-13T06:58:21;0.00;99.90
4757;DHT22;2392;52.578;13.426;2022-12-13T07:00:50;0.00;99.90
4757;DHT22;2392;52.578;13.426;2022-12-13T07:03:26;0.00;99.90
4757;DHT22;2392;52.578;13.426;2022-12-13T07:05:53;0.00;99.90
4757;DHT22;2392;52.578;13.426;2022-12-13T07:08:20;0.00;99.90
4757;DHT22;2392;52.578;13.426;2022-12-13T07:10:47;0.00;99.90
4757;DHT22;2392;52.578;13.426;2022-12-13T07:13:15;0.00;99.90
4757;DHT22;2392;52.578;13.426;2022-12-13T07:15:42;-0.10;99.90
4757;DHT22;2392;52.578;13.426;2022-12-13T07:18:10;-0.10;99.90
4757;DHT22;2392;52.578;13.426;2022-12-13T07:20:38;-0.10;99.90
4757;DHT22;2392;52.578;13.426;2022-12-13T07:23:05;-0.10;99.90
4757;DHT22;2392;52.578;13.426;2022-12-13T07:25:32;-0.10;99.90
4757;DHT22;2392;52.578;13.426;2022-12-13T07:28:01;-0.10;99.90
4757;DHT22;2392;52.578;13.426;2022-12-13T07:30:30;-0.10;99.90
4757;DHT22;2392;52.578;13.426;2022-12-13T07:32:58;-0.10;99.90
4757;DHT22;2392;52.578;13.426;2022-12-13T07:35:27;-0.10;99.90
4757;DHT22;2392;52.578;13.426;2022-12-13T07:37:54;-0.10;99.90
4757;DHT22;2392;52.578;13.426;2022-12-13T07:40:21;-0.10;99.90
4757;DHT22;2392;52.578;13.426;2022-12-13T07:42:49;-0.10;99.90
4757;DHT22;2392;52.578;13.426;2022-12-13T07:45:17;-0.20;99.90
4757;DHT22;2392;52.578;13.426;2022-12-13T07:47:44;-0.20;99.90
4757;DHT22;2392;52.578;13.426;2022-12-13T07:50:12;-0.10;99.90
4757;DHT22;2392;52.578;13.426;2022-12-13T07:52:40;-0.20;99.90
4757;DHT22;2392;52.578;13.426;2022-12-13T07:55:08;-0.20;99.90
4757;DHT22;2392;52.578;13.426;2022-12-13T07:57:35;-0.20;99.90
4757;DHT22;2392;52.578;13.426;2022-12-13T08:00:03;-0.20;99.90
4757;DHT22;2392;52.578;13.426;2022-12-13T08:02:39;-0.20;99.90
4757;DHT22;2392;52.578;13.426;2022-12-13T08:05:07;-0.20;99.90
4757;DHT22;2392;52.578;13.426;2022-12-13T08:07:34;-0.20;99.90
4757;DHT22;2392;52.578;13.426;2022-12-13T08:10:03;-0.20;99.90
4757;DHT22;2392;52.578;13.426;2022-12-13T08:12:30;-0.20;99.90
4757;DHT22;2392;52.578;13.426;2022-12-13T08:14:57;-0.20;99.90
4757;DHT22;2392;52.578;13.426;2022-12-13T08:17:26;-0.20;99.90
4757;DHT22;2392;52.578;13.426;2022-12-13T08:19:53;-0.20;99.90
4757;DHT22;2392;52.578;13.426;2022-12-13T08:22:20;-0.20;99.90
4757;DHT22;2392;52.578;13.426;2022-12-13T08:24:46;-0.10;99.90
4757;DHT22;2392;52.578;13.426;2022-12-13T08:27:15;-0.10;99.90
4757;DHT22;2392;52.578;13.426;2022-12-13T08:29:42;-0.10;99.90
4757;DHT22;2392;52.578;13.426;2022-12-13T08:32:11;-0.10;99.90
4757;DHT22;2392;52.578;13.426;2022-12-13T08:34:38;-0.10;99.90
4757;DHT22;2392;52.578;13.426;2022-12-13T08:37:05;0.00;99.90
4757;DHT22;2392;52.578;13.426;2022-12-13T08:39:34;0.00;99.90
4757;DHT22;2392;52.578;13.426;2022-12-13T08:42:02;0.00;99.90
4757;DHT22;2392;52.578;13.426;2022-12-13T08:44:31;0.00;99.90
4757;DHT22;2392;52.578;13.426;2022-12-13T08:46:58;0.00;99.90
4757;DHT22;2392;52.578;13.426;2022-12-13T08:49:25;0.00;99.90
4757;DHT22;2392;52.578;13.426;2022-12-13T08:51:52;0.10;99.90
4757;DHT22;2392;52.578;13.426;2022-12-13T08:54:19;0.10;99.90
4757;DHT22;2392;52.578;13.426;2022-12-13T08:56:47;0.10;99.90
4757;DHT22;2392;52.578;13.426;2022-12-13T08:59:14;0.10;99.90
4757;DHT22;2392;52.578;13.426;2022-12-13T09:01:42;0.20;99.90
4757;DHT22;2392;52.578;13.426;2022-12-13T09:04:09;0.20;99.90
4757;DHT22;2392;52.578;13.426;2022-12-13T09:06:36;0.10;99.90
4757;DHT22;2392;52.578;13.426;2022-12-13T09:09:03;0.20;99.90
4757;DHT22;2392;52.578;13.426;2022-12-13T09:11:30;0.20;99.90
4757;DHT22;2392;52.578;13.426;2022-12-13T09:13:57;0.20;99.90
4757;DHT22;2392;52.578;13.426;2022-12-13T09:16:24;0.20;99.90
4757;DHT22;2392;52.578;13.426;2022-12-13T09:18:53;0.20;99.90
4757;DHT22;2392;52.578;13.426;2022-12-13T09:21:20;0.20;99.90
4757;DHT22;2392;52.578;13.426;2022-12-13T09:23:47;0.20;99.90
4757;DHT22;2392;52.578;13.426;2022-12-13T09:26:15;0.30;99.90
4757;DHT22;2392;52.578;13.426;2022-12-13T09:28:42;0.30;99.90
4757;DHT22;2392;52.578;13.426;2022-12-13T09:31:11;0.30;99.90
4757;DHT22;2392;52.578;13.426;2022-12-13T09:33:38;0.20;99.90
4757;DHT22;2392;52.578;13.426;2022-12-13T09:36:10;0.20;99.90
4757;DHT22;2392;52.578;13.426;2022-12-13T09:38:37;0.20;99.90
4757;DHT22;2392;52.578;13.426;2022-12-13T09:41:12;0.20;99.90
4757;DHT22;2392;52.578;13.426;2022-12-13T09:43:42;0.30;99.90
4757;DHT22;2392;52.578;13.426;2022-12-13T09:46:20;0.20;99.90
4757;DHT22;2392;52.578;13.426;2022-12-13T09:48:51;0.30;99.90
4757;DHT22;2392;52.578;13.426;2022-12-13T09:51:22;0.30;99.90
4757;DHT22;2392;52.578;13.426;2022-12-13T09:53:52;0.30;99.90
4757;DHT22;2392;52.578;13.426;2022-12-13T09:56:21;0.30;99.90
4757;DHT22;2392;52.578;13.426;2022-12-13T09:58:50;0.30;99.90
4757;DHT22;2392;52.578;13.426;2022-12-13T10:01:17;0.20;99.90
4757;DHT22;2392;52.578;13.426;2022-12-13T10:03:46;0.20;99.90
4757;DHT22;2392;52.578;13.426;2022-12-13T10:06:17;0.20;99.90
4757;DHT22;2392;52.578;13.426;2022-12-13T10:08:48;0.20;99.90
4757;DHT22;2392;52.578;13.426;2022-12-13T10:11:16;0.20;99.90
4757;DHT22;2392;52.578;13.426;2022-12-13T10:13:45;0.20;99.90
4757;DHT22;2392;52.578;13.426;2022-12-13T10:16:17;0.30;99.90
4757;DHT22;2392;52.578;13.426;2022-12-13T10:18:45;0.30;99.90
4757;DHT22;2392;52.578;13.426;2022-12-13T10:21:16;0.40;99.90
4757;DHT22;2392;52.578;13.426;2022-12-13T10:23:46;0.40;99.90
4757;DHT22;2392;52.578;13.426;2022-12-13T10:26:13;0.40;99.90
4757;DHT22;2392;52.578;13.426;2022-12-13T10:28:41;0.40;99.90
4757;DHT22;2392;52.578;13.426;2022-12-13T10:31:15;0.40;99.90
4757;DHT22;2392;52.578;13.426;2022-12-13T10:33:51;0.40;99.90
4757;DHT22;2392;52.578;13.426;2022-12-13T10:36:30;0.40;99.90
4757;DHT22;2392;52.578;13.426;2022-12-13T10:38:59;0.40;99.90
4757;DHT22;2392;52.578;13.426;2022-12-13T10:41:31;0.40;99.90
4757;DHT22;2392;52.578;13.426;2022-12-13T10:44:20;0.40;99.90
4757;DHT22;2392;52.578;13.426;2022-12-13T10:46:59;0.40;99.90
4757;DHT22;2392;52.578;13.426;2022-12-13T10:49:37;0.40;99.90
4757;DHT22;2392;52.578;13.426;2022-12-13T10:52:17;0.40;99.90
4757;DHT22;2392;52.578;13.426;2022-12-13T10:54:48;0.40;99.90
4757;DHT22;2392;52.578;13.426;2022-12-13T10:57:16;0.40;99.90
4757;DHT22;2392;52.578;13.426;2022-12-13T10:59:46;0.40;99.90
4757;DHT22;2392;52.578;13.426;2022-12-13T11:02:32;0.40;99.90
4757;DHT22;2392;52.578;13.426;2022-12-13T11:07:42;0.30;99.90
4757;DHT22;2392;52.578;13.426;2022-12-13T11:10:22;0.30;99.90
4757;DHT22;2392;52.578;13.426;2022-12-13T11:12:49;0.30;99.90
4757;DHT22;2392;52.578;13.426;2022-12-13T11:15:20;0.30;99.90
4757;DHT22;2392;52.578;13.426;2022-12-13T11:17:50;0.30;99.90
4757;DHT22;2392;52.578;13.426;2022-12-13T11:20:20;0.30;99.90
4757;DHT22;2392;52.578;13.426;2022-12-13T11:22:48;0.40;99.90
4757;DHT22;2392;52.578;13.426;2022-12-13T11:25:22;0.40;99.90
4757;DHT22;2392;52.578;13.426;2022-12-13T11:28:01;0.30;99.90
4757;DHT22;2392;52.578;13.426;2022-12-13T11:30:37;0.40;99.90
4757;DHT22;2392;52.578;13.426;2022-12-13T11:33:14;0.40;99.90
4757;DHT22;2392;52.578;13.426;2022-12-13T11:35:53;0.40;99.90
4757;DHT22;2392;52.578;13.426;2022-12-13T11:38:28;0.30;99.90
4757;DHT22;2392;52.578;13.426;2022-12-13T11:41:00;0.30;99.90
4757;DHT22;2392;52.578;13.426;2022-12-13T11:43:36;0.40;99.90
4757;DHT22;2392;52.578;13.426;2022-12-13T11:46:12;0.40;99.90
4757;DHT22;2392;52.578;13.426;2022-12-13T11:48:43;0.50;99.90
4757;DHT22;2392;52.578;13.426;2022-12-13T11:51:14;0.50;99.90
4757;DHT22;2392;52.578;13.426;2022-12-13T11:53:50;0.60;99.90
4757;DHT22;2392;52.578;13.426;2022-12-13T11:56:23;0.60;99.90
4757;DHT22;2392;52.578;13.426;2022-12-13T11:58:56;0.60;99.90
4757;DHT22;2392;52.578;13.426;2022-12-13T12:01:29;0.70;99.90
4757;DHT22;2392;52.578;13.426;2022-12-13T12:04:03;0.70;99.90
4757;DHT22;2392;52.578;13.426;2022-12-13T12:06:37;0.70;99.90
4757;DHT22;2392;52.578;13.426;2022-12-13T12:09:11;0.70;99.90
4757;DHT22;2392;52.578;13.426;2022-12-13T12:11:46;0.80;99.90
4757;DHT22;2392;52.578;13.426;2022-12-13T12:14:18;0.80;99.90
4757;DHT22;2392;52.578;13.426;2022-12-13T12:16:50;0.80;99.90
4757;DHT22;2392;52.578;13.426;2022-12-13T12:19:20;0.90;99.90
4757;DHT22;2392;52.578;13.426;2022-12-13T12:21:57;0.90;99.90
4757;DHT22;2392;52.578;13.426;2022-12-13T12:24:35;0.90;99.90
4757;DHT22;2392;52.578;13.426;2022-12-13T12:27:21;1.00;99.90
4757;DHT22;2392;52.578;13.426;2022-12-13T12:30:09;1.00;99.90
4757;DHT22;2392;52.578;13.426;2022-12-13T12:32:44;1.00;99.90
4757;DHT22;2392;52.578;13.426;2022-12-13T12:38:32;0.90;99.90
4757;DHT22;2392;52.578;13.426;2022-12-13T12:41:17;0.90;99.90
4757;DHT22;2392;52.578;13.426;2022-12-13T12:43:54;0.90;99.90
4757;DHT22;2392;52.578;13.426;2022-12-13T12:49:31;0.90;99.90
4757;DHT22;2392;52.578;13.426;2022-12-13T12:52:11;0.80;99.90
4757;DHT22;2392;52.578;13.426;2022-12-13T12:54:46;0.80;99.90
4757;DHT22;2392;52.578;13.426;2022-12-13T12:57:22;0.80;99.90
4757;DHT22;2392;52.578;13.426;2022-12-13T13:00:02;0.80;99.90
4757;DHT22;2392;52.578;13.426;2022-12-13T13:02:36;0.70;99.90
4757;DHT22;2392;52.578;13.426;2022-12-13T13:05:17;0.70;99.90
4757;DHT22;2392;52.578;13.426;2022-12-13T13:07:48;0.70;99.90
4757;DHT22;2392;52.578;13.426;2022-12-13T13:10:17;0.80;99.90
4757;DHT22;2392;52.578;13.426;2022-12-13T13:12:45;0.70;99.90
4757;DHT22;2392;52.578;13.426;2022-12-13T13:15:51;0.80;99.90
4757;DHT22;2392;52.578;13.426;2022-12-13T13:18:44;0.80;99.90
4757;DHT22;2392;52.578;13.426;2022-12-13T13:21:30;0.80;99.90
4757;DHT22;2392;52.578;13.426;2022-12-13T13:24:19;0.90;99.90
4757;DHT22;2392;52.578;13.426;2022-12-13T13:26:48;0.90;99.90
4757;DHT22;2392;52.578;13.426;2022-12-13T13:29:39;1.00;99.90
4757;DHT22;2392;52.578;13.426;2022-12-13T13:32:26;1.00;99.90
4757;DHT22;2392;52.578;13.426;2022-12-13T13:37:58;1.00;99.90
4757;DHT22;2392;52.578;13.426;2022-12-13T13:40:29;1.00;99.90
4757;DHT22;2392;52.578;13.426;2022-12-13T13:43:12;1.00;99.90
4757;DHT22;2392;52.578;13.426;2022-12-13T13:46:08;1.00;99.90
4757;DHT22;2392;52.578;13.426;2022-12-13T13:48:47;1.00;99.90
4757;DHT22;2392;52.578;13.426;2022-12-13T13:55:01;1.00;99.90
4757;DHT22;2392;52.578;13.426;2022-12-13T13:57:49;1.00;99.90
4757;DHT22;2392;52.578;13.426;2022-12-13T14:00:22;1.00;99.90
4757;DHT22;2392;52.578;13.426;2022-12-13T14:03:22;1.00;99.90
4757;DHT22;2392;52.578;13.426;2022-12-13T14:06:37;1.00;99.90
4757;DHT22;2392;52.578;13.426;2022-12-13T14:09:37;1.10;99.90
4757;DHT22;2392;52.578;13.426;2022-12-13T14:15:41;0.90;99.90
4757;DHT22;2392;52.578;13.426;2022-12-13T14:21:36;0.80;99.90
4757;DHT22;2392;52.578;13.426;2022-12-13T14:24:14;0.70;99.90
4757;DHT22;2392;52.578;13.426;2022-12-13T14:27:00;0.70;99.90
4757;DHT22;2392;52.578;13.426;2022-12-13T14:29:32;0.80;99.90
4757;DHT22;2392;52.578;13.426;2022-12-13T14:32:00;0.80;99.90
4757;DHT22;2392;52.578;13.426;2022-12-13T14:34:30;0.80;99.90
4757;DHT22;2392;52.578;13.426;2022-12-13T14:37:01;0.80;99.90
4757;DHT22;2392;52.578;13.426;2022-12-13T14:39:30;0.80;99.90
4757;DHT22;2392;52.578;13.426;2022-12-13T14:42:00;0.90;99.90
4757;DHT22;2392;52.578;13.426;2022-12-13T14:44:31;0.90;99.90
4757;DHT22;2392;52.578;13.426;2022-12-13T14:47:01;0.90;99.90
4757;DHT22;2392;52.578;13.426;2022-12-13T14:49:30;0.90;99.90
4757;DHT22;2392;52.578;13.426;2022-12-13T14:52:04;1.00;99.90
4757;DHT22;2392;52.578;13.426;2022-12-13T14:54:39;1.00;99.90
4757;DHT22;2392;52.578;13.426;2022-12-13T14:57:15;1.00;99.90
4757;DHT22;2392;52.578;13.426;2022-12-13T14:59:44;0.90;99.90
4757;DHT22;2392;52.578;13.426;2022-12-13T15:02:15;0.90;99.90
4757;DHT22;2392;52.578;13.426;2022-12-13T15:04:42;0.80;99.90
4757;DHT22;2392;52.578;13.426;2022-12-13T15:07:17;0.70;99.90
4757;DHT22;2392;52.578;13.426;2022-12-13T15:09:52;0.70;99.90
4757;DHT22;2392;52.578;13.426;2022-12-13T15:12:19;0.80;99.90
4757;DHT22;2392;52.578;13.426;2022-12-13T15:14:48;0.80;99.90
4757;DHT22;2392;52.578;13.426;2022-12-13T15:17:26;0.80;99.90
4757;DHT22;2392;52.578;13.426;2022-12-13T15:19:56;0.90;99.90
4757;DHT22;2392;52.578;13.426;2022-12-13T15:22:29;0.90;99.90
4757;DHT22;2392;52.578;13.426;2022-12-13T15:24:59;0.90;99.90
4757;DHT22;2392;52.578;13.426;2022-12-13T15:27:29;0.90;99.90
4757;DHT22;2392;52.578;13.426;2022-12-13T15:29:56;0.90;99.90
4757;DHT22;2392;52.578;13.426;2022-12-13T15:32:23;1.00;99.90
4757;DHT22;2392;52.578;13.426;2022-12-13T15:34:50;1.00;99.90
4757;DHT22;2392;52.578;13.426;2022-12-13T15:37:22;1.00;99.90
4757;DHT22;2392;52.578;13.426;2022-12-13T15:39:54;1.00;99.90
4757;DHT22;2392;52.578;13.426;2022-12-13T15:42:28;1.00;99.90
4757;DHT22;2392;52.578;13.426;2022-12-13T15:44:57;1.00;99.90
4757;DHT22;2392;52.578;13.426;2022-12-13T15:47:26;1.00;99.90
4757;DHT22;2392;52.578;13.426;2022-12-13T15:49:55;1.10;99.90
4757;DHT22;2392;52.578;13.426;2022-12-13T15:52:25;1.10;99.90
4757;DHT22;2392;52.578;13.426;2022-12-13T15:54:56;1.10;99.90
4757;DHT22;2392;52.578;13.426;2022-12-13T15:57:24;1.10;99.90
4757;DHT22;2392;52.578;13.426;2022-12-13T16:00:03;1.10;99.90
4757;DHT22;2392;52.578;13.426;2022-12-13T16:02:47;1.10;99.90
4757;DHT22;2392;52.578;13.426;2022-12-13T16:05:22;1.10;99.90
4757;DHT22;2392;52.578;13.426;2022-12-13T16:07:50;1.10;99.90
4757;DHT22;2392;52.578;13.426;2022-12-13T16:10:19;1.10;99.90
4757;DHT22;2392;52.578;13.426;2022-12-13T16:12:48;1.10;99.90
4757;DHT22;2392;52.578;13.426;2022-12-13T16:15:20;1.10;99.90
4757;DHT22;2392;52.578;13.426;2022-12-13T16:17:52;1.10;99.90
4757;DHT22;2392;52.578;13.426;2022-12-13T16:20:20;1.10;99.90
4757;DHT22;2392;52.578;13.426;2022-12-13T16:22:48;1.10;99.90
4757;DHT22;2392;52.578;13.426;2022-12-13T16:25:17;1.10;99.90
4757;DHT22;2392;52.578;13.426;2022-12-13T16:27:45;1.00;99.90
4757;DHT22;2392;52.578;13.426;2022-12-13T16:30:14;1.00;99.90
4757;DHT22;2392;52.578;13.426;2022-12-13T16:32:47;1.00;99.90
4757;DHT22;2392;52.578;13.426;2022-12-13T16:35:15;1.00;99.90
4757;DHT22;2392;52.578;13.426;2022-12-13T16:37:42;0.90;99.90
4757;DHT22;2392;52.578;13.426;2022-12-13T16:40:25;0.90;99.90
4757;DHT22;2392;52.578;13.426;2022-12-13T16:42:56;0.80;99.90
4757;DHT22;2392;52.578;13.426;2022-12-13T16:45:24;0.80;99.90
4757;DHT22;2392;52.578;13.426;2022-12-13T16:47:51;0.80;99.90